Time;durP1;ratioP1;P1;durP2;ratioP2;P2;SDS_P1;SDS_P2;PMS_P1;PMS_P2;Temp;Humidity;BMP_temperature;BMP_pressure;BME280_temperature;BME280_humidity;BME280_pressure;Samples;Min_cycle;Max_cycle;Signal;HPM_P1;HPM_P2
2021/12/02 00:01:56;;;;;;;;;;;;;;;5.40;84.17;99775.59;5184499;28;19937;-68
2021/12/02 00:04:30;;;;;;;;;;;;;;;5.23;84.37;99769.63;5179129;28;19925;-68
2021/12/02 00:07:01;;;;;;;;;;;;;;;5.14;85.23;99783.13;5181642;28;19914;-68
2021/12/02 00:09:33;;;;;;;;;;;;;;;5.16;85.12;99780.09;5182189;28;20274;-68
2021/12/02 00:12:05;;;;;;;;;;;;;;;5.11;85.40;99788.34;5183384;28;19968;-68
2021/12/02 00:14:40;;;;;;;;;;;;;;;5.00;85.46;99793.88;5191688;28;19952;-68
2021/12/02 00:23:23;;;;;;;;;;;;;;;4.86;86.49;99792.81;5182051;28;19953;-68
2021/12/02 00:25:56;;;;;;;;;;;;;;;4.86;87.31;99800.22;5179625;28;19924;-68
2021/12/02 00:28:28;;;;;;;;;;;;;;;4.87;87.21;99799.13;5183529;28;19937;-68
2021/12/02 00:31:00;;;;;;;;;;;;;;;4.89;87.26;99796.94;5183808;28;19945;-68
2021/12/02 00:33:32;;;;;;;;;;;;;;;4.99;87.19;99794.16;5183079;28;19924;-68
2021/12/02 00:36:04;;;;;;;;;;;;;;;5.16;87.36;99797.41;5183224;28;19921;-68
2021/12/02 00:38:36;;;;;;;;;;;;;;;5.28;86.89;99788.03;5175659;28;20294;-68
2021/12/02 00:41:11;;;;;;;;;;;;;;;5.39;87.07;99784.97;5183388;28;19918;-68
2021/12/02 00:43:43;;;;;;;;;;;;;;;5.49;86.75;99781.34;5183854;28;20012;-68
2021/12/02 00:46:16;;;;;;;;;;;;;;;5.55;86.67;99779.41;5179522;28;20005;-68
2021/12/02 00:48:47;;;;;;;;;;;;;;;5.59;86.31;99785.97;5166825;28;19925;-68
2021/12/02 00:51:19;;;;;;;;;;;;;;;5.63;86.36;99787.06;5183318;28;20381;-68
2021/12/02 00:53:53;;;;;;;;;;;;;;;5.68;86.24;99780.72;5182408;28;19922;-68
2021/12/02 00:56:25;;;;;;;;;;;;;;;5.69;86.48;99782.34;5182906;28;19920;-68
2021/12/02 00:58:56;;;;;;;;;;;;;;;5.68;86.06;99787.03;5183098;28;19918;-68
2021/12/02 01:01:33;;;;;;;;;;;;;;;5.70;86.20;99775.72;5182098;28;19946;-68
2021/12/02 01:04:12;;;;;;;;;;;;;;;5.70;86.50;99773.84;5182614;28;19918;-68
2021/12/02 01:06:43;;;;;;;;;;;;;;;5.75;86.15;99778.47;5181149;28;19918;-67
2021/12/02 01:09:14;;;;;;;;;;;;;;;5.77;86.11;99779.00;5182950;28;20342;-68
2021/12/02 01:11:45;;;;;;;;;;;;;;;5.71;86.27;99777.41;5175445;28;19918;-69
2021/12/02 01:14:17;;;;;;;;;;;;;;;5.71;86.48;99780.16;5177742;28;19921;-69
2021/12/02 01:16:48;;;;;;;;;;;;;;;5.71;86.54;99796.66;5182842;28;19952;-69
2021/12/02 01:19:20;;;;;;;;;;;;;;;5.67;85.85;99793.63;5183233;28;20366;-69
2021/12/02 01:21:51;;;;;;;;;;;;;;;5.62;86.66;99783.50;5181614;28;20387;-68
2021/12/02 01:24:23;;;;;;;;;;;;;;;5.64;86.49;99789.50;5182891;28;20021;-68
2021/12/02 01:26:54;;;;;;;;;;;;;;;5.62;86.29;99800.00;5191472;28;20008;-68
2021/12/02 01:29:26;;;;;;;;;;;;;;;5.59;86.36;99795.03;5179837;28;19918;-68
2021/12/02 01:32:01;;;;;;;;;;;;;;;5.57;86.18;99785.44;5179190;28;19972;-68
2021/12/02 01:34:33;;;;;;;;;;;;;;;5.52;85.89;99794.53;5182192;28;19924;-68
2021/12/02 01:37:08;;;;;;;;;;;;;;;5.40;84.53;99796.78;5180929;28;19918;-68
2021/12/02 01:39:41;;;;;;;;;;;;;;;5.28;84.86;99799.03;5182292;28;20389;-68
2021/12/02 01:42:15;;;;;;;;;;;;;;;5.15;86.27;99806.75;5196605;28;19925;-68
2021/12/02 01:44:47;;;;;;;;;;;;;;;5.16;86.82;99802.06;5198086;28;19949;-68
2021/12/02 01:47:21;;;;;;;;;;;;;;;5.18;87.08;99808.94;5181095;28;19982;-68
2021/12/02 01:49:58;;;;;;;;;;;;;;;5.28;87.31;99804.53;5180932;28;19918;-69
2021/12/02 01:52:31;;;;;;;;;;;;;;;5.34;87.26;99800.66;5182390;28;19921;-69
2021/12/02 01:55:04;;;;;;;;;;;;;;;5.40;87.00;99794.84;5181876;28;20045;-69
2021/12/02 01:57:38;;;;;;;;;;;;;;;5.42;86.48;99800.09;5161552;28;19942;-69
2021/12/02 02:00:10;;;;;;;;;;;;;;;5.37;86.05;99800.09;5176606;28;19918;-69
2021/12/02 02:02:42;;;;;;;;;;;;;;;5.32;86.15;99797.38;5175644;28;19925;-69
2021/12/02 02:05:15;;;;;;;;;;;;;;;5.27;86.46;99791.91;5175760;28;19962;-69
2021/12/02 02:07:57;;;;;;;;;;;;;;;5.25;86.37;99799.59;5181657;28;20020;-69
2021/12/02 02:10:29;;;;;;;;;;;;;;;5.23;86.09;99795.19;5179177;28;19925;-69
2021/12/02 02:13:05;;;;;;;;;;;;;;;5.22;86.47;99799.03;5182251;28;19993;-69
2021/12/02 02:15:37;;;;;;;;;;;;;;;5.21;85.94;99799.31;5181385;28;20354;-69
2021/12/02 02:23:33;;;;;;;;;;;;;;;5.17;86.20;99796.31;5181509;28;19921;-69
2021/12/02 02:26:05;;;;;;;;;;;;;;;5.23;86.13;99802.59;5181586;28;19960;-70
2021/12/02 02:28:36;;;;;;;;;;;;;;;5.22;85.39;99807.28;5181302;28;19914;-69
2021/12/02 02:31:07;;;;;;;;;;;;;;;5.21;85.68;99800.13;5186480;28;19923;-69
2021/12/02 02:33:39;;;;;;;;;;;;;;;5.20;85.42;99793.00;5198793;28;19925;-69
2021/12/02 02:36:10;;;;;;;;;;;;;;;5.19;85.65;99796.88;5179139;28;20357;-69
2021/12/02 02:38:41;;;;;;;;;;;;;;;5.16;85.37;99802.91;5177435;28;19921;-69
2021/12/02 02:41:19;;;;;;;;;;;;;;;5.17;85.24;99804.56;5180770;28;19918;-69
2021/12/02 02:43:51;;;;;;;;;;;;;;;5.14;84.97;99804.28;5180990;28;19918;-69
2021/12/02 02:46:23;;;;;;;;;;;;;;;5.09;85.25;99802.38;5168465;28;19946;-69
2021/12/02 02:48:56;;;;;;;;;;;;;;;5.04;84.75;99790.56;5174497;28;20274;-69
2021/12/02 02:51:29;;;;;;;;;;;;;;;5.03;84.87;99791.66;5181158;28;19925;-69
2021/12/02 02:54:04;;;;;;;;;;;;;;;4.99;85.10;99797.72;5170931;28;19926;-69
2021/12/02 02:56:45;;;;;;;;;;;;;;;5.00;85.13;99798.56;5179429;28;19914;-69
2021/12/02 02:59:38;;;;;;;;;;;;;;;5.00;84.87;99804.88;5184052;28;19917;-69
2021/12/02 03:02:41;;;;;;;;;;;;;;;4.99;84.45;99802.41;5196157;28;19960;-69
2021/12/02 03:05:13;;;;;;;;;;;;;;;4.96;84.75;99803.78;5197711;28;19972;-69
2021/12/02 03:07:50;;;;;;;;;;;;;;;4.96;84.96;99800.19;5180236;28;19918;-69
2021/12/02 03:13:12;;;;;;;;;;;;;;;4.95;85.18;99802.13;5180633;28;19914;-69
2021/12/02 03:18:33;;;;;;;;;;;;;;;4.94;84.83;99805.16;5183046;28;20338;-69
2021/12/02 03:21:20;;;;;;;;;;;;;;;4.92;84.96;99804.63;5194843;28;19957;-69
2021/12/02 03:23:53;;;;;;;;;;;;;;;4.87;85.06;99810.13;5180598;28;19928;-69
2021/12/02 03:26:25;;;;;;;;;;;;;;;4.89;85.18;99810.66;5180776;28;20009;-69
2021/12/02 03:28:56;;;;;;;;;;;;;;;4.91;85.21;99811.19;5168704;28;20362;-69
2021/12/02 03:31:27;;;;;;;;;;;;;;;4.93;85.29;99822.72;5180102;28;19941;-69
2021/12/02 03:33:59;;;;;;;;;;;;;;;4.77;85.23;99821.94;5179782;28;19965;-69
2021/12/02 03:36:30;;;;;;;;;;;;;;;4.77;85.41;99820.00;5179594;28;19918;-69
2021/12/02 03:39:06;;;;;;;;;;;;;;;4.83;85.29;99826.31;5180496;28;19945;-69
2021/12/02 03:41:38;;;;;;;;;;;;;;;4.82;85.30;99818.38;5179528;28;20021;-69
2021/12/02 03:44:09;;;;;;;;;;;;;;;4.87;85.69;99832.09;5179165;28;20012;-67
2021/12/02 03:46:41;;;;;;;;;;;;;;;4.68;85.10;99846.41;5176025;28;20029;-68
2021/12/02 03:49:12;;;;;;;;;;;;;;;4.56;85.49;99845.84;5181397;28;19924;-67
2021/12/02 03:51:43;;;;;;;;;;;;;;;4.49;85.90;99848.84;5180118;28;19918;-67
2021/12/02 03:54:14;;;;;;;;;;;;;;;4.30;85.05;99834.84;5180163;28;19922;-67
2021/12/02 03:56:46;;;;;;;;;;;;;;;4.35;85.60;99826.63;5179812;28;19910;-67
2021/12/02 03:59:17;;;;;;;;;;;;;;;4.48;86.28;99821.69;5179964;28;19918;-67
2021/12/02 04:01:49;;;;;;;;;;;;;;;4.53;85.99;99822.50;5171349;28;20359;-67
2021/12/02 04:04:20;;;;;;;;;;;;;;;4.56;85.58;99812.91;5175600;28;20016;-67
2021/12/02 04:06:51;;;;;;;;;;;;;;;4.57;85.15;99815.34;5179934;28;19922;-67
2021/12/02 04:09:24;;;;;;;;;;;;;;;4.64;85.33;99820.56;5179973;28;19960;-68
2021/12/02 04:12:01;;;;;;;;;;;;;;;4.71;85.21;99821.13;5179301;28;19930;-68
2021/12/02 04:14:53;;;;;;;;;;;;;;;4.76;84.99;99817.56;5180350;28;19918;-68
2021/12/02 04:17:41;;;;;;;;;;;;;;;4.82;84.84;99815.63;5179098;28;19965;-68
2021/12/02 04:20:14;;;;;;;;;;;;;;;4.73;83.98;99821.69;5176255;28;19929;-68
2021/12/02 04:22:45;;;;;;;;;;;;;;;4.70;84.93;99811.22;5179882;28;19925;-68
2021/12/02 04:25:17;;;;;;;;;;;;;;;4.74;84.92;99812.31;5179359;28;19918;-68
2021/12/02 04:27:48;;;;;;;;;;;;;;;4.75;84.82;99813.97;5181976;28;19921;-68
2021/12/02 04:30:21;;;;;;;;;;;;;;;4.78;85.05;99813.44;5180521;28;20021;-67
2021/12/02 04:32:53;;;;;;;;;;;;;;;4.84;84.89;99817.00;5179052;28;19924;-68
2021/12/02 04:35:24;;;;;;;;;;;;;;;4.89;84.75;99818.91;5177980;28;20440;-68
2021/12/02 04:37:55;;;;;;;;;;;;;;;4.92;84.50;99821.91;5178929;28;20418;-68
2021/12/02 04:40:26;;;;;;;;;;;;;;;4.95;84.47;99826.84;5183918;28;19914;-69
2021/12/02 04:42:57;;;;;;;;;;;;;;;4.91;84.59;99819.44;5183347;28;19961;-69
2021/12/02 04:45:29;;;;;;;;;;;;;;;4.91;84.74;99834.03;5169581;28;19968;-69
2021/12/02 04:48:00;;;;;;;;;;;;;;;4.79;83.57;99836.22;5182833;28;20017;-68
2021/12/02 04:50:31;;;;;;;;;;;;;;;4.72;84.43;99835.69;5182586;28;20065;-67
2021/12/02 04:53:02;;;;;;;;;;;;;;;4.52;84.84;99842.00;5181558;28;20441;-68
2021/12/02 04:55:33;;;;;;;;;;;;;;;4.40;85.49;99845.03;5183188;28;20290;-67
2021/12/02 04:58:05;;;;;;;;;;;;;;;4.31;85.94;99846.66;5183155;28;19921;-68
2021/12/02 05:00:36;;;;;;;;;;;;;;;4.26;86.44;99850.19;5182145;28;20385;-68
2021/12/02 05:03:07;;;;;;;;;;;;;;;4.23;87.25;99842.50;5183109;28;20004;-68
2021/12/02 05:05:38;;;;;;;;;;;;;;;4.31;87.07;99852.94;5182362;28;19922;-68
2021/12/02 05:08:10;;;;;;;;;;;;;;;4.43;86.58;99852.69;5182531;28;19925;-68
2021/12/02 05:10:41;;;;;;;;;;;;;;;4.50;86.63;99844.19;5171606;28;19985;-68
2021/12/02 05:13:12;;;;;;;;;;;;;;;4.54;86.25;99859.03;5182010;28;19925;-68
2021/12/02 05:15:43;;;;;;;;;;;;;;;4.52;85.80;99867.53;5182358;28;19918;-68
2021/12/02 05:18:14;;;;;;;;;;;;;;;4.50;86.33;99872.47;5183379;28;19924;-68
2021/12/02 05:20:47;;;;;;;;;;;;;;;4.33;86.93;99878.22;5181710;28;20012;-68
2021/12/02 05:23:18;;;;;;;;;;;;;;;3.91;85.96;99887.44;5182960;28;19960;-67
2021/12/02 05:25:49;;;;;;;;;;;;;;;3.73;86.04;99874.19;5182447;28;20382;-67
2021/12/02 05:28:21;;;;;;;;;;;;;;;3.57;87.07;99880.72;5175279;28;19964;-67
2021/12/02 05:30:52;;;;;;;;;;;;;;;3.30;87.38;99889.91;5182573;28;19918;-67
2021/12/02 05:33:23;;;;;;;;;;;;;;;3.23;87.92;99892.03;5182442;28;19913;-67
2021/12/02 05:35:54;;;;;;;;;;;;;;;3.16;88.15;99875.00;5181251;28;19989;-67
2021/12/02 05:38:25;;;;;;;;;;;;;;;3.13;87.37;99878.28;5182817;28;19914;-67
2021/12/02 05:40:57;;;;;;;;;;;;;;;3.02;87.26;99871.91;5181914;28;19925;-68
2021/12/02 05:43:28;;;;;;;;;;;;;;;3.13;87.71;99868.13;5179436;28;19910;-68
2021/12/02 05:46:00;;;;;;;;;;;;;;;3.18;87.48;99865.41;5181886;28;19918;-68
2021/12/02 05:48:31;;;;;;;;;;;;;;;3.23;87.40;99876.41;5179202;28;20374;-69
2021/12/02 05:51:02;;;;;;;;;;;;;;;3.28;88.23;99883.03;5181586;28;20365;-68
2021/12/02 05:53:33;;;;;;;;;;;;;;;3.25;88.43;99895.34;5182170;28;20334;-68
2021/12/02 05:56:04;;;;;;;;;;;;;;;3.26;88.97;99896.97;5181235;28;19988;-68
2021/12/02 05:58:36;;;;;;;;;;;;;;;3.29;89.29;99901.94;5181769;28;19988;-68
2021/12/02 06:01:07;;;;;;;;;;;;;;;3.34;87.85;99888.25;5171698;28;19962;-68
2021/12/02 06:03:39;;;;;;;;;;;;;;;3.33;87.71;99889.34;5182752;28;19926;-69
2021/12/02 06:06:14;;;;;;;;;;;;;;;3.16;87.49;99883.22;5177675;28;19917;-68
2021/12/02 06:08:46;;;;;;;;;;;;;;;3.09;87.50;99880.69;5181741;28;19978;-68
2021/12/02 06:11:17;;;;;;;;;;;;;;;3.15;87.45;99874.19;5181249;28;19914;-69
2021/12/02 06:13:48;;;;;;;;;;;;;;;3.22;87.06;99879.41;5182339;28;19921;-69
2021/12/02 06:16:21;;;;;;;;;;;;;;;3.32;87.34;99878.66;5181107;28;19945;-68
2021/12/02 06:18:52;;;;;;;;;;;;;;;3.42;87.27;99879.53;5176875;28;19992;-68
2021/12/02 06:21:23;;;;;;;;;;;;;;;3.57;87.45;99883.44;5181746;28;19914;-69
2021/12/02 06:23:56;;;;;;;;;;;;;;;3.69;86.70;99887.63;5180482;28;19926;-68
2021/12/02 06:26:27;;;;;;;;;;;;;;;3.79;86.69;99894.25;5180913;28;19910;-66
2021/12/02 06:28:58;;;;;;;;;;;;;;;3.84;86.23;99897.84;5180841;28;19918;-68
2021/12/02 06:31:29;;;;;;;;;;;;;;;3.92;86.70;99900.06;5180154;28;19970;-68
2021/12/02 06:34:01;;;;;;;;;;;;;;;4.01;86.68;99903.09;5179812;28;19925;-69
2021/12/02 06:36:33;;;;;;;;;;;;;;;4.09;86.27;99904.50;5174222;28;19918;-69
2021/12/02 06:39:05;;;;;;;;;;;;;;;4.14;86.31;99897.13;5178819;28;19926;-69
2021/12/02 06:41:36;;;;;;;;;;;;;;;4.20;86.12;99897.94;5181118;28;19925;-69
2021/12/02 06:44:10;;;;;;;;;;;;;;;4.20;84.99;99892.47;5170992;28;19974;-69
2021/12/02 06:46:42;;;;;;;;;;;;;;;4.16;85.22;99888.59;5180593;28;20012;-69
2021/12/02 06:49:13;;;;;;;;;;;;;;;4.13;85.25;99895.44;5180632;28;20068;-69
2021/12/02 06:51:44;;;;;;;;;;;;;;;4.13;85.61;99900.13;5173514;28;19921;-69
2021/12/02 06:54:15;;;;;;;;;;;;;;;4.13;85.71;99905.63;5176434;28;19918;-69
2021/12/02 06:56:47;;;;;;;;;;;;;;;4.05;85.46;99919.84;5180744;28;19914;-68
2021/12/02 06:59:18;;;;;;;;;;;;;;;3.93;85.74;99937.34;5180537;28;20289;-68
2021/12/02 07:01:50;;;;;;;;;;;;;;;3.80;86.13;99935.09;5180939;28;19936;-68
2021/12/02 07:04:21;;;;;;;;;;;;;;;3.46;86.82;99940.97;5180820;28;19917;-68
2021/12/02 07:06:52;;;;;;;;;;;;;;;3.46;87.35;99940.16;5180424;28;19936;-68
2021/12/02 07:09:23;;;;;;;;;;;;;;;3.45;87.01;99947.56;5171743;28;19925;-68
2021/12/02 07:11:55;;;;;;;;;;;;;;;3.49;86.71;99947.84;5180442;28;19914;-68
2021/12/02 07:14:27;;;;;;;;;;;;;;;3.37;87.32;99944.47;5179825;28;19917;-68
2021/12/02 07:16:58;;;;;;;;;;;;;;;3.32;88.55;99956.19;5180778;28;19914;-68
2021/12/02 07:19:30;;;;;;;;;;;;;;;3.34;88.89;99948.56;5180210;28;19914;-68
2021/12/02 07:22:01;;;;;;;;;;;;;;;3.37;89.12;99945.28;5180842;28;19918;-68
2021/12/02 07:24:32;;;;;;;;;;;;;;;3.35;88.57;99966.66;5180611;28;19921;-68
2021/12/02 07:27:05;;;;;;;;;;;;;;;3.23;88.53;99966.03;5177382;28;20424;-68
2021/12/02 07:29:39;;;;;;;;;;;;;;;3.19;88.96;99971.19;5180869;28;19914;-68
2021/12/02 07:32:10;;;;;;;;;;;;;;;3.08;87.65;99977.69;5180337;28;19921;-68
2021/12/02 07:34:44;;;;;;;;;;;;;;;3.07;86.86;99980.66;5179904;28;19921;-68
2021/12/02 07:37:15;;;;;;;;;;;;;;;3.13;87.77;99982.38;5180355;28;20012;-68
2021/12/02 07:39:47;;;;;;;;;;;;;;;3.29;88.31;99973.19;5180122;28;20016;-68
2021/12/02 07:42:18;;;;;;;;;;;;;;;3.36;88.35;99984.75;5178317;28;19918;-68
2021/12/02 07:44:50;;;;;;;;;;;;;;;3.48;88.02;99984.56;5179590;28;19917;-68
2021/12/02 07:47:22;;;;;;;;;;;;;;;3.44;87.90;99992.47;5179262;28;20378;-69
2021/12/02 07:49:53;;;;;;;;;;;;;;;3.41;88.04;99987.53;5179801;28;19925;-68
2021/12/02 07:52:25;;;;;;;;;;;;;;;3.49;87.69;99998.00;5180207;28;19922;-69
2021/12/02 07:54:57;;;;;;;;;;;;;;;3.54;87.34;99990.91;5179730;28;19972;-69
2021/12/02 07:57:30;;;;;;;;;;;;;;;3.67;87.61;99987.69;5179843;28;20333;-68
2021/12/02 08:00:02;;;;;;;;;;;;;;;3.71;87.13;99983.34;5178756;28;20092;-71
2021/12/02 08:02:35;;;;;;;;;;;;;;;3.78;86.80;99991.31;5178909;28;19914;-71
2021/12/02 08:05:07;;;;;;;;;;;;;;;3.83;86.99;100000.41;5180521;28;19929;-72
2021/12/02 08:07:39;;;;;;;;;;;;;;;3.92;86.77;99998.00;5180323;28;19914;-72
2021/12/02 08:10:11;;;;;;;;;;;;;;;3.98;86.73;100004.31;5179982;28;19917;-71
2021/12/02 08:12:51;;;;;;;;;;;;;;;3.98;86.31;99998.84;5181663;28;20369;-72
2021/12/02 08:15:23;;;;;;;;;;;;;;;3.91;86.01;100005.41;5184444;28;19969;-72
2021/12/02 08:17:55;;;;;;;;;;;;;;;3.91;86.05;100005.41;5172407;28;19914;-73
2021/12/02 08:20:27;;;;;;;;;;;;;;;3.95;85.96;100013.09;5183056;28;19918;-72
2021/12/02 08:22:59;;;;;;;;;;;;;;;3.95;85.61;100015.84;5182715;28;19918;-74
2021/12/02 08:25:31;;;;;;;;;;;;;;;3.91;86.13;100010.91;5183899;28;19920;-76
2021/12/02 08:28:02;;;;;;;;;;;;;;;3.96;87.00;100017.47;5183667;28;19921;-76
2021/12/02 08:30:36;;;;;;;;;;;;;;;4.09;87.71;100025.22;5183418;28;20318;-79
2021/12/02 08:33:08;;;;;;;;;;;;;;;4.17;86.67;100019.25;5183164;28;19918;-82
2021/12/02 08:35:40;;;;;;;;;;;;;;;4.21;85.70;100017.59;5177804;28;19918;-84
2021/12/02 08:38:13;;;;;;;;;;;;;;;4.23;84.59;100026.41;5192658;28;19922;-85
2021/12/02 08:40:47;;;;;;;;;;;;;;;4.24;84.84;100021.75;5194051;28;19914;-82
2021/12/02 08:43:18;;;;;;;;;;;;;;;4.25;84.04;100023.41;5190344;28;20004;-83
2021/12/02 08:45:49;;;;;;;;;;;;;;;4.25;84.17;100026.97;5185788;28;19976;-80
2021/12/02 08:48:21;;;;;;;;;;;;;;;4.21;83.92;100034.06;5183584;28;19919;-79
2021/12/02 08:50:52;;;;;;;;;;;;;;;4.16;84.42;100041.47;5176918;28;19918;-76
2021/12/02 08:53:23;;;;;;;;;;;;;;;4.18;84.73;100045.59;5180889;28;19914;-78
2021/12/02 08:55:54;;;;;;;;;;;;;;;4.14;84.88;100056.28;5190002;28;19910;-80
2021/12/02 08:58:25;;;;;;;;;;;;;;;4.18;84.77;100064.00;5189048;28;19973;-79
2021/12/02 09:00:57;;;;;;;;;;;;;;;4.22;85.07;100065.94;5197325;28;19918;-86
2021/12/02 09:03:28;;;;;;;;;;;;;;;4.22;85.15;100079.66;5189548;28;19914;-78
2021/12/02 09:06:00;;;;;;;;;;;;;;;4.24;85.03;100082.13;5187883;28;19914;-83
2021/12/02 09:08:31;;;;;;;;;;;;;;;4.24;85.50;100082.94;5179765;28;19971;-83
2021/12/02 09:11:03;;;;;;;;;;;;;;;4.25;85.38;100084.63;5184124;28;19923;-81
2021/12/02 09:13:35;;;;;;;;;;;;;;;4.20;84.53;100083.75;5183353;28;19914;-82
2021/12/02 09:16:06;;;;;;;;;;;;;;;4.15;85.46;100092.78;5183085;28;20378;-78
2021/12/02 09:18:37;;;;;;;;;;;;;;;4.18;85.22;100099.66;5182375;28;20389;-77
2021/12/02 09:21:08;;;;;;;;;;;;;;;4.17;85.38;100092.50;5183179;28;19921;-82
2021/12/02 09:23:39;;;;;;;;;;;;;;;4.10;85.32;100106.47;5183640;28;20429;-81
2021/12/02 09:26:11;;;;;;;;;;;;;;;4.08;84.58;100100.44;5170478;28;20330;-83
2021/12/02 09:28:42;;;;;;;;;;;;;;;4.06;84.94;100110.84;5183220;28;20362;-80
2021/12/02 09:31:13;;;;;;;;;;;;;;;4.08;83.91;100116.88;5182551;28;19921;-81
2021/12/02 09:33:44;;;;;;;;;;;;;;;4.05;84.31;100117.44;5182230;28;20000;-80
2021/12/02 09:36:16;;;;;;;;;;;;;;;4.07;84.45;100109.75;5183430;28;20370;-80
2021/12/02 09:38:47;;;;;;;;;;;;;;;4.08;84.71;100116.88;5182672;28;19918;-79
2021/12/02 09:41:18;;;;;;;;;;;;;;;4.10;84.51;100114.72;5181357;28;19956;-79
2021/12/02 09:43:50;;;;;;;;;;;;;;;4.17;83.94;100120.81;5178806;28;20002;-79
2021/12/02 09:46:21;;;;;;;;;;;;;;;4.16;83.83;100121.06;5182315;28;19929;-80
2021/12/02 09:48:53;;;;;;;;;;;;;;;4.18;83.97;100124.38;5180969;28;19924;-80
2021/12/02 09:51:29;;;;;;;;;;;;;;;4.26;84.73;100127.44;5182410;28;19922;-80
2021/12/02 09:54:07;;;;;;;;;;;;;;;4.21;83.70;100121.09;5182609;28;19918;-81
2021/12/02 09:56:41;;;;;;;;;;;;;;;4.22;84.30;100120.84;5182258;28;20001;-81
2021/12/02 09:59:24;;;;;;;;;;;;;;;4.24;83.88;100120.56;5172002;28;19918;-80
2021/12/02 10:02:03;;;;;;;;;;;;;;;4.29;84.31;100113.16;5163339;28;19921;-77
2021/12/02 10:04:40;;;;;;;;;;;;;;;4.41;84.89;100112.16;5182271;28;20346;-75
2021/12/02 10:07:20;;;;;;;;;;;;;;;4.46;84.68;100118.50;5181389;28;19957;-75
2021/12/02 10:09:59;;;;;;;;;;;;;;;4.46;84.14;100114.91;5177550;28;19914;-75
2021/12/02 10:12:33;;;;;;;;;;;;;;;4.43;84.36;100121.78;5181595;28;20409;-74
2021/12/02 10:15:11;;;;;;;;;;;;;;;4.42;84.77;100116.53;5180315;28;19941;-79
2021/12/02 10:17:57;;;;;;;;;;;;;;;4.45;85.21;100119.59;5175642;28;19922;-76
2021/12/02 10:20:41;;;;;;;;;;;;;;;4.47;84.90;100127.53;5181239;28;19968;-78
2021/12/02 10:23:20;;;;;;;;;;;;;;;4.52;85.06;100127.56;5174155;28;19928;-77
2021/12/02 10:25:54;;;;;;;;;;;;;;;4.46;84.02;100134.13;5182131;28;19913;-76
2021/12/02 10:28:28;;;;;;;;;;;;;;;4.45;84.15;100137.97;5181553;28;20004;-75
2021/12/02 10:31:00;;;;;;;;;;;;;;;4.43;84.45;100140.16;5180555;28;20362;-76
2021/12/02 10:33:33;;;;;;;;;;;;;;;4.40;84.40;100141.53;5170100;28;19957;-75
2021/12/02 10:36:06;;;;;;;;;;;;;;;4.42;84.38;100147.56;5180668;28;19940;-76
2021/12/02 10:38:39;;;;;;;;;;;;;;;4.26;84.13;100141.16;5180703;28;19914;-71
2021/12/02 10:41:13;;;;;;;;;;;;;;;4.28;83.72;100138.97;5179112;28;20277;-78
2021/12/02 10:44:01;;;;;;;;;;;;;;;4.14;83.88;100152.34;5179661;28;19920;-74
2021/12/02 10:46:33;;;;;;;;;;;;;;;4.16;84.22;100157.56;5175688;28;19922;-74
2021/12/02 10:49:05;;;;;;;;;;;;;;;4.20;84.37;100155.94;5178969;28;20369;-74
2021/12/02 10:51:38;;;;;;;;;;;;;;;4.31;84.94;100163.16;5171421;28;20286;-76
2021/12/02 10:54:14;;;;;;;;;;;;;;;4.23;84.18;100166.41;5181052;28;19968;-79
2021/12/02 10:56:47;;;;;;;;;;;;;;;4.22;84.09;100162.00;5180738;28;19965;-78
2021/12/02 10:59:43;;;;;;;;;;;;;;;4.25;84.88;100166.97;5181987;28;20001;-83
2021/12/02 11:02:17;;;;;;;;;;;;;;;4.32;84.87;100167.56;5178826;28;19918;-81
2021/12/02 11:04:50;;;;;;;;;;;;;;;4.40;85.11;100162.63;5180646;28;19929;-79
2021/12/02 11:07:30;;;;;;;;;;;;;;;4.54;85.53;100170.16;5170329;28;20017;-80
2021/12/02 11:10:12;;;;;;;;;;;;;;;4.58;84.95;100171.28;5178709;28;19914;-81
2021/12/02 11:12:44;;;;;;;;;;;;;;;4.57;84.70;100179.78;5181152;28;19913;-76
2021/12/02 11:15:19;;;;;;;;;;;;;;;4.40;85.05;100176.38;5180061;28;19918;-74
2021/12/02 11:17:52;;;;;;;;;;;;;;;4.30;84.85;100180.72;5179708;28;19941;-76
2021/12/02 11:20:28;;;;;;;;;;;;;;;4.33;85.57;100182.94;5179565;28;19957;-74
2021/12/02 11:23:04;;;;;;;;;;;;;;;4.46;85.63;100189.88;5179991;28;19918;-78
2021/12/02 11:25:38;;;;;;;;;;;;;;;4.65;87.20;100176.50;5179429;28;19976;-79
2021/12/02 11:28:09;;;;;;;;;;;;;;;4.77;87.82;100171.63;5181236;28;20259;-79
2021/12/02 11:30:41;;;;;;;;;;;;;;;4.86;86.00;100174.72;5178556;28;19925;-76
2021/12/02 11:33:15;;;;;;;;;;;;;;;4.74;83.33;100188.66;5178131;28;19945;-75
2021/12/02 11:35:47;;;;;;;;;;;;;;;4.69;84.26;100183.13;5180161;28;19973;-75
2021/12/02 11:38:28;;;;;;;;;;;;;;;4.58;84.59;100193.25;5180404;28;19964;-75
2021/12/02 11:41:04;;;;;;;;;;;;;;;4.58;85.33;100197.94;5170685;28;19919;-75
2021/12/02 11:43:36;;;;;;;;;;;;;;;4.53;85.35;100198.72;5178606;28;19952;-75
2021/12/02 11:46:09;;;;;;;;;;;;;;;4.55;84.67;100198.44;5178954;28;20311;-75
2021/12/02 11:48:42;;;;;;;;;;;;;;;4.47;83.66;100208.00;5184148;28;19917;-80
2021/12/02 11:51:14;;;;;;;;;;;;;;;4.43;82.78;100198.66;5191737;28;19969;-80
2021/12/02 11:53:46;;;;;;;;;;;;;;;4.45;83.28;100212.94;5187793;28;19914;-75
2021/12/02 11:56:18;;;;;;;;;;;;;;;4.28;83.42;100201.28;5183568;28;19918;-74
2021/12/02 11:58:50;;;;;;;;;;;;;;;4.33;82.96;100201.31;5173311;28;19914;-74
2021/12/02 12:01:24;;;;;;;;;;;;;;;4.32;82.73;100192.28;5183238;28;19969;-75
2021/12/02 12:04:09;;;;;;;;;;;;;;;4.19;82.21;100192.69;5184049;28;19964;-79
2021/12/02 12:06:41;;;;;;;;;;;;;;;4.04;83.00;100181.59;5186232;28;19914;-78
2021/12/02 12:09:14;;;;;;;;;;;;;;;3.95;84.15;100183.19;5186220;28;20369;-77
2021/12/02 12:11:49;;;;;;;;;;;;;;;3.96;84.73;100168.38;5186580;28;20357;-77
2021/12/02 12:14:40;;;;;;;;;;;;;;;3.88;85.81;100177.91;5183872;28;20291;-76
2021/12/02 12:17:13;;;;;;;;;;;;;;;3.83;86.04;100167.72;5184833;28;19984;-81
2021/12/02 12:19:50;;;;;;;;;;;;;;;3.97;87.25;100167.31;5185070;28;20372;-78
2021/12/02 12:22:28;;;;;;;;;;;;;;;4.00;85.87;100181.31;5183511;28;19913;-78
2021/12/02 12:25:03;;;;;;;;;;;;;;;3.99;86.22;100189.81;5184173;28;20305;-78
2021/12/02 12:27:36;;;;;;;;;;;;;;;3.80;85.54;100194.88;5182532;28;20294;-81
2021/12/02 12:30:09;;;;;;;;;;;;;;;3.88;85.54;100186.97;5182888;28;19913;-78
2021/12/02 12:38:19;;;;;;;;;;;;;;;3.75;86.01;100223.06;5183577;28;20310;-75
2021/12/02 12:41:03;;;;;;;;;;;;;;;3.59;87.05;100226.75;5182131;28;19972;-75
2021/12/02 12:43:37;;;;;;;;;;;;;;;3.68;87.59;100222.44;5163423;28;19921;-80
2021/12/02 12:46:13;;;;;;;;;;;;;;;3.83;87.65;100228.06;5183603;28;19918;-78
2021/12/02 12:48:44;;;;;;;;;;;;;;;3.73;87.24;100233.47;5182872;28;19972;-81
2021/12/02 12:51:26;;;;;;;;;;;;;;;3.73;87.20;100230.72;5183239;28;19918;-85
2021/12/02 12:53:58;;;;;;;;;;;;;;;3.66;89.19;100230.13;5183742;28;19921;-78
2021/12/02 12:56:31;;;;;;;;;;;;;;;3.61;87.08;100235.56;5183186;28;19917;-71
2021/12/02 12:59:04;;;;;;;;;;;;;;;3.66;87.26;100250.16;5181302;28;19918;-71
2021/12/02 13:01:37;;;;;;;;;;;;;;;3.80;86.67;100252.47;5182645;28;19957;-79
2021/12/02 13:04:13;;;;;;;;;;;;;;;3.68;86.84;100274.53;5183389;28;19997;-81
2021/12/02 13:06:47;;;;;;;;;;;;;;;3.60;85.86;100275.00;5180371;28;19914;-79
2021/12/02 13:09:36;;;;;;;;;;;;;;;3.46;88.14;100285.56;5184749;28;19929;-78
2021/12/02 13:12:10;;;;;;;;;;;;;;;3.47;86.93;100295.44;5182790;28;19968;-78
2021/12/02 13:14:42;;;;;;;;;;;;;;;3.56;86.88;100293.09;5183089;28;19920;-78
2021/12/02 13:17:31;;;;;;;;;;;;;;;3.59;87.05;100301.63;5182061;28;20425;-78
2021/12/02 13:20:21;;;;;;;;;;;;;;;3.73;85.78;100309.44;5182456;28;19930;-77
2021/12/02 13:23:10;;;;;;;;;;;;;;;3.76;85.80;100300.69;5174225;28;19922;-75
2021/12/02 13:25:41;;;;;;;;;;;;;;;3.84;86.02;100314.78;5181213;28;19941;-75
2021/12/02 13:28:21;;;;;;;;;;;;;;;3.92;85.46;100311.56;5182548;28;19941;-74
2021/12/02 13:30:55;;;;;;;;;;;;;;;3.93;84.95;100315.97;5182400;28;19957;-74
2021/12/02 13:33:32;;;;;;;;;;;;;;;3.97;85.21;100323.69;5182411;28;19913;-78
2021/12/02 13:36:04;;;;;;;;;;;;;;;4.12;85.30;100321.13;5182570;28;19957;-76
2021/12/02 13:38:38;;;;;;;;;;;;;;;4.09;84.58;100327.94;5182275;28;19978;-74
2021/12/02 13:41:13;;;;;;;;;;;;;;;4.13;84.71;100336.47;5170465;28;20368;-75
2021/12/02 13:43:59;;;;;;;;;;;;;;;4.34;84.77;100324.59;5182681;28;19960;-75
2021/12/02 13:46:50;;;;;;;;;;;;;;;4.36;83.90;100327.91;5168282;28;20012;-74
2021/12/02 13:49:26;;;;;;;;;;;;;;;4.34;83.96;100330.06;5162349;28;19926;-76